Time;durP1;ratioP1;P1;durP2;ratioP2;P2;SDS_P1;SDS_P2;PMS_P1;PMS_P2;Temp;Humidity;BMP_temperature;BMP_pressure;BME280_temperature;BME280_humidity;BME280_pressure;Samples;Min_cycle;Max_cycle;Signal;HPM_P1;HPM_P2
2021/11/06 00:00:51;;;;;;;12.82;10.73;;;4.30;99.90;;;;;;5048773;28;20208;-69
2021/11/06 00:03:18;;;;;;;11.18;10.02;;;4.30;99.90;;;;;;5049013;28;20213;-69
2021/11/06 00:05:44;;;;;;;13.52;10.30;;;4.20;99.90;;;;;;5048316;28;20232;-69
2021/11/06 00:08:12;;;;;;;11.75;9.63;;;4.10;99.90;;;;;;5048613;28;20236;-69
2021/11/06 00:10:38;;;;;;;14.07;10.50;;;4.10;99.90;;;;;;5047706;28;20201;-69
2021/11/06 00:13:06;;;;;;;15.32;10.63;;;4.00;99.90;;;;;;5049498;28;20232;-67
2021/11/06 00:15:33;;;;;;;13.50;9.38;;;4.00;99.90;;;;;;5049239;28;20200;-67
2021/11/06 00:18:00;;;;;;;12.35;9.50;;;3.90;99.90;;;;;;5047471;28;20236;-69
2021/11/06 00:20:27;;;;;;;13.15;9.75;;;3.90;99.90;;;;;;5049934;28;20197;-69
2021/11/06 00:22:53;;;;;;;10.10;8.60;;;3.90;99.90;;;;;;5049814;28;20213;-70
2021/11/06 00:25:20;;;;;;;13.35;9.65;;;3.90;99.90;;;;;;5049728;28;20213;-69
2021/11/06 00:27:47;;;;;;;15.00;10.18;;;3.80;99.90;;;;;;5049064;28;20205;-69
2021/11/06 00:30:16;;;;;;;13.45;10.05;;;3.80;99.90;;;;;;5024949;28;20579;-69
2021/11/06 00:32:45;;;;;;;11.50;9.30;;;3.70;99.90;;;;;;5029926;28;20844;-67
2021/11/06 00:35:15;;;;;;;12.90;9.30;;;3.60;99.90;;;;;;5030536;28;20228;-68
2021/11/06 00:37:44;;;;;;;11.65;9.65;;;3.60;99.90;;;;;;5028567;28;20229;-67
2021/11/06 00:40:13;;;;;;;12.98;10.02;;;3.50;99.90;;;;;;5030300;28;20206;-67
2021/11/06 00:42:40;;;;;;;13.43;10.57;;;3.50;99.90;;;;;;5028784;28;20257;-67
2021/11/06 00:45:08;;;;;;;10.85;9.18;;;3.50;99.90;;;;;;5028478;28;20202;-68
2021/11/06 00:47:37;;;;;;;12.48;9.93;;;3.40;99.90;;;;;;5028291;28;20218;-68
2021/11/06 00:50:06;;;;;;;12.05;9.85;;;3.40;99.90;;;;;;5029313;28;20214;-68
2021/11/06 00:52:32;;;;;;;12.13;10.15;;;3.40;99.90;;;;;;5028921;28;20198;-68
2021/11/06 00:54:59;;;;;;;15.48;9.25;;;3.40;99.90;;;;;;5029166;28;20236;-67
2021/11/06 00:57:27;;;;;;;12.80;9.15;;;3.40;99.90;;;;;;5028315;28;20233;-67
2021/11/06 00:59:53;;;;;;;12.55;9.13;;;3.30;99.90;;;;;;5028966;28;20252;-67
2021/11/06 01:02:20;;;;;;;11.98;9.25;;;3.20;99.90;;;;;;5028726;28;20201;-67
2021/11/06 01:04:49;;;;;;;13.30;10.55;;;3.20;99.90;;;;;;5029027;28;20205;-67
2021/11/06 01:07:16;;;;;;;14.75;9.15;;;3.20;99.90;;;;;;5028332;28;20236;-67
2021/11/06 01:09:43;;;;;;;10.68;8.75;;;3.10;99.90;;;;;;5029072;28;20240;-67
2021/11/06 01:12:10;;;;;;;12.20;8.90;;;3.10;99.90;;;;;;5028864;28;20193;-67
2021/11/06 01:14:37;;;;;;;11.45;9.27;;;3.10;99.90;;;;;;5029138;28;20201;-67
2021/11/06 01:17:04;;;;;;;10.50;8.52;;;3.00;99.90;;;;;;5028558;28;20225;-67
2021/11/06 01:19:31;;;;;;;9.27;8.32;;;3.00;99.90;;;;;;5028880;28;20279;-67
2021/11/06 01:21:59;;;;;;;12.48;9.35;;;3.00;99.90;;;;;;5029200;28;20220;-67
2021/11/06 01:24:26;;;;;;;11.82;9.07;;;2.90;99.90;;;;;;5028938;28;20205;-67
2021/11/06 01:26:52;;;;;;;11.38;8.27;;;2.90;99.90;;;;;;5028495;28;20244;-67
2021/11/06 01:29:19;;;;;;;12.77;9.95;;;2.90;99.90;;;;;;5028201;28;20697;-67
2021/11/06 01:31:47;;;;;;;12.45;8.98;;;2.80;99.90;;;;;;5028433;28;20700;-67
2021/11/06 01:34:13;;;;;;;10.18;8.15;;;2.80;99.90;;;;;;5028754;28;20241;-68
2021/11/06 01:36:40;;;;;;;13.73;8.30;;;2.80;99.90;;;;;;5028162;28;20232;-68
2021/11/06 01:39:08;;;;;;;11.52;8.55;;;2.70;99.90;;;;;;5028793;28;20213;-67
2021/11/06 01:41:35;;;;;;;11.95;8.85;;;2.70;99.90;;;;;;5028909;28;20585;-68
2021/11/06 01:44:03;;;;;;;9.77;8.50;;;2.70;99.90;;;;;;5028736;28;20232;-67
2021/11/06 01:46:30;;;;;;;9.07;7.88;;;2.60;99.90;;;;;;5027659;28;20218;-67
2021/11/06 01:48:58;;;;;;;9.50;7.80;;;2.60;99.90;;;;;;5028895;28;20263;-67
2021/11/06 01:51:25;;;;;;;11.02;8.20;;;2.60;99.90;;;;;;5028715;28;20210;-67
2021/11/06 01:53:52;;;;;;;11.23;8.18;;;2.50;99.90;;;;;;5032780;28;20210;-67
2021/11/06 01:56:20;;;;;;;9.00;7.70;;;2.50;99.90;;;;;;5032115;28;20244;-67
2021/11/06 01:58:47;;;;;;;10.70;8.10;;;2.50;99.90;;;;;;5032358;28;20989;-67
2021/11/06 02:01:14;;;;;;;10.70;8.40;;;2.50;99.90;;;;;;5033049;28;20206;-67
2021/11/06 02:03:41;;;;;;;10.48;7.85;;;2.50;99.90;;;;;;5032625;28;20628;-69
2021/11/06 02:06:08;;;;;;;9.20;7.28;;;2.50;99.90;;;;;;5030720;28;20226;-69
2021/11/06 02:08:37;;;;;;;11.65;8.10;;;2.50;99.90;;;;;;5032117;28;20599;-69
2021/11/06 02:11:05;;;;;;;10.07;7.43;;;2.40;99.90;;;;;;5034586;28;20194;-68
2021/11/06 02:13:33;;;;;;;15.57;8.25;;;2.40;99.90;;;;;;5034297;28;20208;-69
2021/11/06 02:16:00;;;;;;;11.23;8.98;;;2.40;99.90;;;;;;5033762;28;20231;-69
2021/11/06 02:18:27;;;;;;;9.45;7.10;;;2.30;99.90;;;;;;5034072;28;20225;-69
2021/11/06 02:21:01;;;;;;;8.75;7.45;;;2.30;99.90;;;;;;5034258;28;20210;-69
2021/11/06 02:23:28;;;;;;;12.45;8.10;;;2.30;99.90;;;;;;5034370;28;20198;-68
2021/11/06 02:25:55;;;;;;;10.23;9.20;;;2.30;99.90;;;;;;5033334;28;20218;-69
2021/11/06 02:28:21;;;;;;;13.15;8.02;;;2.30;99.90;;;;;;5034015;28;20212;-69
2021/11/06 02:30:48;;;;;;;13.65;9.15;;;2.30;99.90;;;;;;5033881;28;20202;-68
2021/11/06 02:33:15;;;;;;;12.18;8.57;;;2.20;99.90;;;;;;5034071;28;20205;-68
2021/11/06 02:35:42;;;;;;;15.13;7.85;;;2.20;99.90;;;;;;5033210;28;20615;-69
2021/11/06 02:38:11;;;;;;;10.82;8.02;;;2.20;99.90;;;;;;5033950;28;20253;-69
2021/11/06 02:40:38;;;;;;;12.00;8.65;;;2.10;99.90;;;;;;5033804;28;20208;-69
2021/11/06 02:43:05;;;;;;;11.05;8.35;;;2.10;99.90;;;;;;5033594;28;20210;-69
2021/11/06 02:45:32;;;;;;;10.48;8.85;;;2.00;99.90;;;;;;5033513;28;20198;-69
2021/11/06 02:47:59;;;;;;;10.63;8.45;;;2.10;99.90;;;;;;5033200;28;20197;-69
2021/11/06 02:50:26;;;;;;;10.35;7.88;;;2.00;99.90;;;;;;5033671;28;20669;-69
2021/11/06 02:52:52;;;;;;;10.68;8.50;;;2.00;99.90;;;;;;5033836;28;20239;-69
2021/11/06 02:55:22;;;;;;;13.02;8.52;;;2.10;99.90;;;;;;5033672;28;20202;-69
2021/11/06 02:57:49;;;;;;;13.57;8.93;;;2.10;99.90;;;;;;5033053;28;20233;-69
2021/11/06 03:00:16;;;;;;;10.98;8.35;;;2.10;99.90;;;;;;5033366;28;20205;-69
2021/11/06 03:02:43;;;;;;;9.88;8.18;;;2.10;99.90;;;;;;5033505;28;20584;-69
2021/11/06 03:05:13;;;;;;;9.95;8.25;;;2.10;99.90;;;;;;5032117;28;20209;-69
2021/11/06 03:07:40;;;;;;;10.13;8.27;;;2.10;99.90;;;;;;5032735;28;20226;-69
2021/11/06 03:10:10;;;;;;;10.73;8.52;;;2.00;99.90;;;;;;5033631;28;20198;-69
2021/11/06 03:12:39;;;;;;;11.15;8.52;;;2.00;99.90;;;;;;5033281;28;20202;-69
2021/11/06 03:15:07;;;;;;;10.88;7.97;;;2.00;99.90;;;;;;5033061;28;20205;-69
2021/11/06 03:17:34;;;;;;;11.13;8.43;;;2.00;99.90;;;;;;5032177;28;20225;-69
2021/11/06 03:20:01;;;;;;;12.02;8.25;;;2.00;99.90;;;;;;5033119;28;20225;-69
2021/11/06 03:22:28;;;;;;;11.05;8.18;;;1.90;99.90;;;;;;5032981;28;20204;-69
2021/11/06 03:24:55;;;;;;;11.02;8.05;;;1.90;99.90;;;;;;5032709;28;20201;-69
2021/11/06 03:27:21;;;;;;;11.45;8.20;;;1.90;99.90;;;;;;5032071;28;20217;-69
2021/11/06 03:29:50;;;;;;;11.57;8.85;;;1.80;99.90;;;;;;5032741;28;20209;-69
2021/11/06 03:32:17;;;;;;;9.55;7.07;;;1.80;99.90;;;;;;5032827;28;20202;-69
2021/11/06 03:34:44;;;;;;;12.13;8.70;;;1.80;99.90;;;;;;5032339;28;20201;-69
2021/11/06 03:37:10;;;;;;;13.40;7.57;;;1.80;99.90;;;;;;5032002;28;20221;-69
2021/11/06 03:39:37;;;;;;;11.45;7.95;;;1.90;99.90;;;;;;5032327;28;20201;-69
2021/11/06 03:42:05;;;;;;;10.00;7.88;;;1.90;99.90;;;;;;5032531;28;20673;-69
2021/11/06 03:44:32;;;;;;;11.95;8.45;;;1.90;99.90;;;;;;5032179;28;20589;-69
2021/11/06 03:47:00;;;;;;;10.82;8.43;;;1.90;99.90;;;;;;5032767;28;20233;-70
2021/11/06 03:49:27;;;;;;;8.35;6.95;;;1.90;99.90;;;;;;5033332;28;20248;-69
2021/11/06 03:51:54;;;;;;;10.30;7.82;;;1.90;99.90;;;;;;5032879;28;20206;-69
2021/11/06 03:54:20;;;;;;;10.05;8.13;;;1.90;99.90;;;;;;5032880;28;20209;-69
2021/11/06 03:56:47;;;;;;;11.15;8.27;;;1.80;99.90;;;;;;5032082;28;20304;-69
2021/11/06 03:59:14;;;;;;;13.50;8.55;;;1.80;99.90;;;;;;5032707;28;20228;-69
2021/11/06 04:01:41;;;;;;;9.50;8.20;;;1.80;99.90;;;;;;5032013;28;20298;-69
2021/11/06 04:04:09;;;;;;;12.90;8.05;;;1.80;99.90;;;;;;5032586;28;20202;-69
2021/11/06 04:06:36;;;;;;;11.18;8.75;;;1.80;99.90;;;;;;5031778;28;20253;-69
2021/11/06 04:09:04;;;;;;;11.05;8.43;;;1.80;99.90;;;;;;5032114;28;20632;-69
2021/11/06 04:11:30;;;;;;;11.30;8.02;;;1.70;99.90;;;;;;5032344;28;20217;-69
2021/11/06 04:13:57;;;;;;;10.05;8.32;;;1.60;99.90;;;;;;5032040;28;20213;-69
2021/11/06 04:16:24;;;;;;;13.10;8.80;;;1.60;99.90;;;;;;5031208;28;20618;-69
2021/11/06 04:18:51;;;;;;;10.68;8.00;;;1.60;99.90;;;;;;5031918;28;20221;-69
2021/11/06 04:21:19;;;;;;;12.45;8.30;;;1.50;99.90;;;;;;5032186;28;20585;-69
2021/11/06 04:23:45;;;;;;;9.70;7.93;;;1.50;99.90;;;;;;5031745;28;20208;-69
2021/11/06 04:26:12;;;;;;;10.38;7.47;;;1.50;99.90;;;;;;5031088;28;20230;-69
2021/11/06 04:28:39;;;;;;;12.50;8.30;;;1.50;99.90;;;;;;5031878;28;20618;-69
2021/11/06 04:31:06;;;;;;;8.85;7.03;;;1.50;99.90;;;;;;5031437;28;20213;-69
2021/11/06 04:33:33;;;;;;;10.32;7.90;;;1.40;99.90;;;;;;5031490;28;20673;-69
2021/11/06 04:35:59;;;;;;;10.35;7.53;;;1.40;99.90;;;;;;5031118;28;20255;-69
2021/11/06 04:38:27;;;;;;;10.77;8.00;;;1.40;99.90;;;;;;5031200;28;20225;-69
2021/11/06 04:40:54;;;;;;;9.65;7.72;;;1.40;99.90;;;;;;5031458;28;20202;-69
2021/11/06 04:43:21;;;;;;;10.88;8.15;;;1.30;99.90;;;;;;5031177;28;20696;-69
2021/11/06 04:45:47;;;;;;;9.77;7.03;;;1.30;99.90;;;;;;5030662;28;20232;-69
2021/11/06 04:48:14;;;;;;;11.35;8.38;;;1.30;99.90;;;;;;5031368;28;20208;-69
2021/11/06 04:50:41;;;;;;;10.13;7.78;;;1.30;99.90;;;;;;5030871;28;20213;-69
2021/11/06 04:53:09;;;;;;;9.80;8.27;;;1.30;99.90;;;;;;5031100;28;20212;-69
2021/11/06 04:55:37;;;;;;;12.52;8.48;;;1.20;99.90;;;;;;5030727;28;20197;-69
2021/11/06 04:58:03;;;;;;;8.40;6.95;;;1.20;99.90;;;;;;5030022;28;20221;-68
2021/11/06 05:00:30;;;;;;;10.25;7.50;;;1.20;99.90;;;;;;5029237;28;20190;-69
2021/11/06 05:02:57;;;;;;;10.50;8.43;;;1.20;99.90;;;;;;5029772;28;20224;-69
2021/11/06 05:05:24;;;;;;;10.57;8.20;;;1.20;99.90;;;;;;5029569;28;20197;-69
2021/11/06 05:07:51;;;;;;;8.60;6.40;;;1.20;99.90;;;;;;5029000;28;20832;-69
2021/11/06 05:12:48;;;;;;;11.13;8.15;;;1.20;99.90;;;;;;5004816;28;20238;-70
2021/11/06 05:15:15;;;;;;;9.20;7.65;;;1.20;99.90;;;;;;5003900;28;20505;-70
2021/11/06 05:17:43;;;;;;;10.20;7.72;;;1.20;99.90;;;;;;4998124;28;20297;-70
2021/11/06 05:20:11;;;;;;;8.23;6.68;;;1.20;99.90;;;;;;5000145;28;20194;-68
2021/11/06 05:22:37;;;;;;;8.40;7.40;;;1.10;99.90;;;;;;5000556;28;20199;-71
2021/11/06 05:25:06;;;;;;;9.75;7.22;;;1.10;99.90;;;;;;5000529;28;20191;-70
2021/11/06 05:27:33;;;;;;;8.43;7.43;;;1.20;99.90;;;;;;4998532;28;20219;-71
2021/11/06 05:30:02;;;;;;;8.70;6.82;;;1.20;99.90;;;;;;4999257;28;20210;-70
2021/11/06 05:32:28;;;;;;;9.65;7.68;;;1.20;99.90;;;;;;5000740;28;20292;-70
2021/11/06 05:34:55;;;;;;;9.65;7.25;;;1.20;99.90;;;;;;5001051;28;20207;-71
2021/11/06 05:37:22;;;;;;;9.40;6.90;;;1.10;99.90;;;;;;4999188;28;20219;-71
2021/11/06 05:39:48;;;;;;;10.55;7.20;;;1.20;99.90;;;;;;5001103;28;20214;-71
2021/11/06 05:42:15;;;;;;;10.25;7.63;;;1.10;99.90;;;;;;5000167;28;20191;-71
2021/11/06 05:44:42;;;;;;;9.38;7.10;;;1.10;99.90;;;;;;4998218;28;20202;-71
2021/11/06 05:47:10;;;;;;;9.45;7.20;;;1.10;99.90;;;;;;4999042;28;20221;-71
2021/11/06 05:49:37;;;;;;;7.60;6.80;;;1.10;99.90;;;;;;5000161;28;20229;-71
2021/11/06 05:52:04;;;;;;;9.07;6.72;;;1.00;99.90;;;;;;4998255;28;20880;-71
2021/11/06 05:54:31;;;;;;;9.88;7.82;;;1.00;99.90;;;;;;4999370;28;20214;-72
2021/11/06 05:56:58;;;;;;;8.50;7.03;;;1.00;99.90;;;;;;4999774;28;20230;-71
2021/11/06 05:59:24;;;;;;;10.05;7.40;;;1.00;99.90;;;;;;4999925;28;20780;-70
2021/11/06 06:01:51;;;;;;;9.52;7.20;;;1.00;99.90;;;;;;4999264;28;20200;-71
2021/11/06 06:04:19;;;;;;;10.35;7.13;;;1.00;99.90;;;;;;4998466;28;20222;-71
2021/11/06 06:06:46;;;;;;;10.23;8.00;;;1.00;99.90;;;;;;4999724;28;20238;-71
2021/11/06 06:09:13;;;;;;;7.90;7.07;;;1.00;99.90;;;;;;4999110;28;20203;-71
2021/11/06 06:11:39;;;;;;;10.07;7.90;;;1.00;99.90;;;;;;4997937;28;20329;-71
2021/11/06 06:14:06;;;;;;;8.60;7.40;;;1.00;99.90;;;;;;4999949;28;20607;-71
2021/11/06 06:16:33;;;;;;;10.18;7.53;;;0.90;99.90;;;;;;4998527;28;20215;-71
2021/11/06 06:18:59;;;;;;;9.60;7.05;;;1.00;99.90;;;;;;4997931;28;20219;-69
2021/11/06 06:21:28;;;;;;;8.80;6.88;;;1.00;99.90;;;;;;4999549;28;20608;-71
2021/11/06 06:23:54;;;;;;;11.30;7.15;;;1.00;99.90;;;;;;4990460;28;20589;-71
2021/11/06 06:26:21;;;;;;;8.85;6.75;;;0.90;99.90;;;;;;4989711;28;20226;-71
2021/11/06 06:28:48;;;;;;;8.77;6.68;;;1.00;99.90;;;;;;4990480;28;20196;-70
2021/11/06 06:31:15;;;;;;;10.50;7.95;;;1.20;99.90;;;;;;4990533;28;20199;-69
2021/11/06 06:33:42;;;;;;;9.73;7.50;;;1.40;99.90;;;;;;4990063;28;20718;-71
2021/11/06 06:36:10;;;;;;;11.27;7.82;;;1.30;99.90;;;;;;4989927;28;20239;-70
2021/11/06 06:38:38;;;;;;;11.35;5.95;;;1.30;99.90;;;;;;4991746;28;20250;-71
2021/11/06 06:41:04;;;;;;;8.80;7.25;;;1.20;99.90;;;;;;4993863;28;20207;-71
2021/11/06 06:43:32;;;;;;;10.07;6.70;;;1.20;99.90;;;;;;4993435;28;20218;-69
2021/11/06 06:45:59;;;;;;;7.15;6.35;;;1.10;99.90;;;;;;4993185;28;20665;-70
2021/11/06 06:48:26;;;;;;;7.60;6.55;;;1.10;99.90;;;;;;4993900;28;20206;-70
2021/11/06 06:50:53;;;;;;;8.80;6.63;;;1.10;99.90;;;;;;4993484;28;20207;-70
2021/11/06 06:53:21;;;;;;;7.22;6.40;;;1.20;99.90;;;;;;4993879;28;20617;-70
2021/11/06 06:55:49;;;;;;;9.18;7.45;;;1.20;99.90;;;;;;4992785;28;20564;-70
2021/11/06 06:58:16;;;;;;;8.57;7.22;;;1.10;99.90;;;;;;4993586;28;20207;-70
2021/11/06 07:00:43;;;;;;;7.25;6.07;;;1.10;99.90;;;;;;4993630;28;20209;-70
2021/11/06 07:03:10;;;;;;;7.32;6.18;;;1.20;99.90;;;;;;4993672;28;20234;-71
2021/11/06 07:05:37;;;;;;;9.35;6.47;;;1.30;99.90;;;;;;4993195;28;20613;-69
2021/11/06 07:08:06;;;;;;;8.10;6.35;;;1.30;99.90;;;;;;4992831;28;20207;-70
2021/11/06 07:10:33;;;;;;;7.85;7.05;;;1.30;99.90;;;;;;4993131;28;20202;-70
2021/11/06 07:13:01;;;;;;;8.48;7.22;;;1.40;99.90;;;;;;4993195;28;20203;-69
2021/11/06 07:15:27;;;;;;;8.32;6.43;;;1.50;99.90;;;;;;4993073;28;20584;-69
2021/11/06 07:17:54;;;;;;;8.82;6.95;;;1.50;99.90;;;;;;4992873;28;20204;-70
2021/11/06 07:20:21;;;;;;;9.32;6.75;;;1.50;99.90;;;;;;4992763;28;20234;-70
2021/11/06 07:22:49;;;;;;;11.02;7.80;;;1.60;99.90;;;;;;5006221;28;20211;-69
2021/11/06 07:25:15;;;;;;;9.60;7.57;;;1.60;99.90;;;;;;5012609;28;20198;-71
2021/11/06 07:27:42;;;;;;;10.68;7.78;;;1.60;99.90;;;;;;5011951;28;20226;-68
2021/11/06 07:30:12;;;;;;;9.32;7.05;;;1.70;99.90;;;;;;5012648;28;20199;-70
2021/11/06 07:32:38;;;;;;;9.38;6.50;;;1.80;99.90;;;;;;5012693;28;20208;-70
2021/11/06 07:35:06;;;;;;;9.73;6.68;;;1.90;99.90;;;;;;5013080;28;20209;-71
2021/11/06 07:37:34;;;;;;;12.43;7.70;;;1.90;99.90;;;;;;5011705;28;20576;-68
2021/11/06 07:40:01;;;;;;;12.13;7.53;;;1.90;99.90;;;;;;5012700;28;20233;-71
2021/11/06 07:42:28;;;;;;;10.77;7.13;;;2.00;99.90;;;;;;5012085;28;20689;-70
2021/11/06 07:44:55;;;;;;;11.60;7.32;;;2.10;99.90;;;;;;5012541;28;20206;-71
2021/11/06 07:47:23;;;;;;;9.95;7.15;;;2.20;99.90;;;;;;5011779;28;20230;-69
2021/11/06 07:49:50;;;;;;;10.05;6.55;;;2.30;99.90;;;;;;5011413;28;20253;-68
2021/11/06 07:52:16;;;;;;;12.30;6.30;;;2.30;99.90;;;;;;5012480;28;20553;-71
2021/11/06 07:54:43;;;;;;;9.50;7.05;;;2.40;99.90;;;;;;5011617;28;20213;-70
2021/11/06 07:57:10;;;;;;;10.45;7.07;;;2.40;99.90;;;;;;5011560;28;20329;-69
2021/11/06 07:59:37;;;;;;;31.42;7.78;;;2.50;99.90;;;;;;5011843;28;20591;-71
2021/11/06 08:02:04;;;;;;;13.02;7.05;;;2.50;99.90;;;;;;5012258;28;20584;-71
2021/11/06 08:04:32;;;;;;;11.75;8.23;;;2.50;99.90;;;;;;5011954;28;20198;-69
2021/11/06 08:06:59;;;;;;;10.43;7.10;;;2.50;99.90;;;;;;5011423;28;20215;-68
2021/11/06 08:09:25;;;;;;;10.88;6.10;;;2.50;99.90;;;;;;4995471;28;20699;-70
2021/11/06 08:11:52;;;;;;;10.48;6.65;;;2.50;99.90;;;;;;4991938;28;20207;-71
2021/11/06 08:14:19;;;;;;;11.90;7.50;;;2.50;99.90;;;;;;4992186;28;20850;-71
2021/11/06 08:16:49;;;;;;;10.00;7.15;;;2.60;99.90;;;;;;4991570;28;20230;-71
2021/11/06 08:19:16;;;;;;;9.50;6.65;;;2.70;99.90;;;;;;4991128;28;20227;-72
2021/11/06 08:21:44;;;;;;;9.30;6.50;;;2.70;99.90;;;;;;4992312;28;20203;-71
2021/11/06 08:24:11;;;;;;;9.88;6.57;;;2.80;99.90;;;;;;4992264;28;20207;-72
2021/11/06 08:26:37;;;;;;;8.38;6.32;;;2.90;99.90;;;;;;5003852;28;20226;-70
2021/11/06 08:29:04;;;;;;;10.10;6.35;;;2.90;99.90;;;;;;5010424;28;20705;-70
2021/11/06 08:31:32;;;;;;;43.28;6.78;;;3.00;99.90;;;;;;5010334;28;20203;-69
2021/11/06 08:33:59;;;;;;;16.85;6.70;;;2.90;99.90;;;;;;5010044;28;20199;-69
2021/11/06 08:36:26;;;;;;;11.10;6.43;;;2.90;99.90;;;;;;5008319;28;20803;-73
2021/11/06 08:38:54;;;;;;;11.02;6.35;;;2.90;99.90;;;;;;5010004;28;20233;-72
2021/11/06 08:41:21;;;;;;;8.95;6.30;;;3.00;99.90;;;;;;5010293;28;20221;-71
2021/11/06 08:43:48;;;;;;;7.93;5.00;;;3.00;99.90;;;;;;4999169;28;20203;-71
2021/11/06 08:46:15;;;;;;;9.20;5.88;;;3.10;99.90;;;;;;4989639;28;20219;-71
2021/11/06 08:48:44;;;;;;;8.63;6.03;;;3.10;99.90;;;;;;4992129;28;20198;-72
2021/11/06 08:51:12;;;;;;;10.60;5.15;;;3.20;99.90;;;;;;4999697;28;20230;-69
2021/11/06 08:53:39;;;;;;;8.95;5.43;;;3.20;99.90;;;;;;5007790;28;20679;-69
2021/11/06 08:56:07;;;;;;;8.52;5.15;;;3.10;99.90;;;;;;5008285;28;20222;-71
2021/11/06 08:58:33;;;;;;;6.75;4.95;;;3.20;99.90;;;;;;4992664;28;20660;-68
2021/11/06 09:01:01;;;;;;;6.40;5.13;;;3.20;99.90;;;;;;5010146;28;20261;-69
2021/11/06 09:03:29;;;;;;;6.72;4.65;;;3.30;99.90;;;;;;5010816;28;20209;-69
2021/11/06 09:05:57;;;;;;;9.43;5.00;;;3.40;99.90;;;;;;5009391;28;20230;-73
2021/11/06 09:08:26;;;;;;;6.63;5.25;;;3.50;99.90;;;;;;5010439;28;20210;-73
2021/11/06 09:10:55;;;;;;;11.55;5.18;;;3.70;99.90;;;;;;5009621;28;20241;-73
2021/11/06 09:13:24;;;;;;;6.00;5.00;;;3.80;99.90;;;;;;5010002;28;20265;-70
2021/11/06 09:15:50;;;;;;;6.40;5.03;;;3.90;99.90;;;;;;5009426;28;20614;-72
2021/11/06 09:18:17;;;;;;;6.90;4.85;;;4.00;99.90;;;;;;5009722;28;20206;-72
2021/11/06 09:20:44;;;;;;;7.25;5.00;;;4.10;99.90;;;;;;5009863;28;20230;-70
2021/11/06 09:23:11;;;;;;;9.80;5.35;;;4.20;99.90;;;;;;5009847;28;20732;-69
2021/11/06 09:25:38;;;;;;;7.43;5.43;;;4.30;99.90;;;;;;5009622;28;20567;-70
2021/11/06 09:28:05;;;;;;;6.05;5.13;;;4.40;99.90;;;;;;5009859;28;20304;-70
2021/11/06 09:30:33;;;;;;;6.25;5.00;;;4.50;99.90;;;;;;5009959;28;20202;-70
2021/11/06 09:33:00;;;;;;;6.38;5.65;;;4.50;99.90;;;;;;5009617;28;20204;-69
2021/11/06 09:35:27;;;;;;;7.75;5.25;;;4.50;99.90;;;;;;5009810;28;20206;-67
2021/11/06 09:37:54;;;;;;;10.05;6.25;;;4.60;99.90;;;;;;5009445;28;20217;-69
2021/11/06 09:40:21;;;;;;;9.52;6.18;;;4.60;99.90;;;;;;5009462;28;20226;-69
2021/11/06 09:42:48;;;;;;;9.40;6.72;;;4.60;99.90;;;;;;5009824;28;20206;-68
2021/11/06 09:45:17;;;;;;;10.40;5.82;;;4.60;99.90;;;;;;5009778;28;20674;-69
2021/11/06 09:47:45;;;;;;;9.77;6.97;;;4.70;99.90;;;;;;5009044;28;20237;-69
2021/11/06 09:50:15;;;;;;;10.10;6.18;;;4.90;99.90;;;;;;5009815;28;20717;-67
2021/11/06 09:52:42;;;;;;;7.18;5.50;;;5.00;99.90;;;;;;5010264;28;20322;-70
2021/11/06 09:55:09;;;;;;;9.88;7.30;;;5.20;99.90;;;;;;5009406;28;20214;-68
2021/11/06 09:57:37;;;;;;;8.02;6.90;;;5.30;99.90;;;;;;5009129;28;20222;-72
2021/11/06 10:00:07;;;;;;;8.85;7.25;;;5.40;99.90;;;;;;5009334;28;20238;-72
2021/11/06 10:02:34;;;;;;;8.63;6.70;;;5.30;99.90;;;;;;5009466;28;20214;-73
2021/11/06 10:05:02;;;;;;;10.93;7.50;;;5.30;99.90;;;;;;5009272;28;20206;-70
2021/11/06 10:07:29;;;;;;;9.98;7.68;;;5.40;99.90;;;;;;5009385;28;20226;-71
2021/11/06 10:10:04;;;;;;;10.27;7.15;;;5.40;99.90;;;;;;5008902;28;20688;-69
2021/11/06 10:12:45;;;;;;;13.13;7.28;;;5.60;99.90;;;;;;5009821;28;20589;-70
2021/11/06 10:15:13;;;;;;;9.40;7.00;;;5.70;99.90;;;;;;5013253;28;20206;-70
2021/11/06 10:17:39;;;;;;;10.02;7.10;;;5.90;99.90;;;;;;5012672;28;20718;-70
2021/11/06 10:20:26;;;;;;;11.80;8.77;;;6.10;99.90;;;;;;5012847;28;20226;-69
2021/11/06 10:22:53;;;;;;;13.50;7.15;;;6.20;99.90;;;;;;5012871;28;20198;-68
2021/11/06 10:25:22;;;;;;;10.73;8.85;;;6.30;99.90;;;;;;5013442;28;20202;-70
2021/11/06 10:27:55;;;;;;;11.20;10.00;;;6.40;99.90;;;;;;5012646;28;20202;-70
2021/11/06 10:30:29;;;;;;;10.55;8.10;;;6.40;99.90;;;;;;5010172;28;20289;-73
2021/11/06 10:33:03;;;;;;;11.10;8.93;;;6.50;99.90;;;;;;5023988;28;20198;-72
2021/11/06 10:35:33;;;;;;;9.90;7.85;;;6.40;99.90;;;;;;5033271;28;20258;-72
2021/11/06 10:38:03;;;;;;;11.43;8.13;;;6.40;99.90;;;;;;5031718;28;20225;-72
2021/11/06 10:40:31;;;;;;;10.85;8.15;;;6.30;99.90;;;;;;5032920;28;20317;-70
2021/11/06 10:43:01;;;;;;;12.20;8.20;;;6.50;99.90;;;;;;5032624;28;20201;-71
2021/11/06 10:45:30;;;;;;;12.30;8.90;;;6.80;99.90;;;;;;5032225;28;20202;-71
2021/11/06 10:48:01;;;;;;;14.93;9.48;;;6.90;99.90;;;;;;5032120;28;20244;-71
2021/11/06 10:50:59;;;;;;;10.75;8.93;;;7.10;99.90;;;;;;5032489;28;20205;-71
2021/11/06 10:53:45;;;;;;;11.32;8.55;;;7.30;99.90;;;;;;5030668;28;20669;-73
2021/11/06 10:56:30;;;;;;;12.90;9.82;;;7.30;99.90;;;;;;5031929;28;20217;-72
2021/11/06 10:58:59;;;;;;;13.20;9.63;;;7.10;99.90;;;;;;5032372;28;20202;-72
2021/11/06 11:01:28;;;;;;;13.38;10.20;;;6.90;99.90;;;;;;5031847;28;20225;-73
2021/11/06 11:04:01;;;;;;;17.38;10.63;;;6.70;99.90;;;;;;5031859;28;20695;-69
2021/11/06 11:06:37;;;;;;;15.65;10.70;;;6.50;99.90;;;;;;5032399;28;20261;-72
2021/11/06 11:09:05;;;;;;;15.70;11.18;;;6.40;99.90;;;;;;5031745;28;20205;-73
2021/11/06 11:11:34;;;;;;;14.85;10.40;;;6.40;99.90;;;;;;5032902;28;20206;-72
2021/11/06 11:14:04;;;;;;;14.70;11.13;;;6.60;99.90;;;;;;5032507;28;20202;-72
2021/11/06 11:16:36;;;;;;;14.13;10.80;;;6.80;99.90;;;;;;5032093;28;20226;-72
2021/11/06 11:19:09;;;;;;;13.40;10.20;;;7.00;99.90;;;;;;5031955;28;20209;-72
2021/11/06 11:21:41;;;;;;;13.38;10.68;;;7.50;99.90;;;;;;5032377;28;20240;-73
2021/11/06 11:24:10;;;;;;;13.25;10.20;;;8.30;99.90;;;;;;5031342;28;20557;-73
2021/11/06 11:26:40;;;;;;;12.20;9.65;;;9.00;99.90;;;;;;5025543;28;20243;-72
2021/11/06 11:29:09;;;;;;;12.45;9.82;;;9.90;99.90;;;;;;5030212;28;20201;-72
2021/11/06 11:31:37;;;;;;;13.55;9.95;;;10.50;99.90;;;;;;5025487;28;20278;-73
2021/11/06 11:34:08;;;;;;;15.00;10.77;;;11.10;99.90;;;;;;5022517;28;20222;-73
2021/11/06 11:36:37;;;;;;;15.18;10.65;;;12.00;99.90;;;;;;5022254;28;20218;-69
2021/11/06 11:39:22;;;;;;;15.18;10.38;;;13.00;99.90;;;;;;5019219;28;20303;-72
2021/11/06 11:42:36;;;;;;;12.57;9.13;;;13.90;99.90;;;;;;5012490;28;20214;-72
2021/11/06 11:45:20;;;;;;;11.27;9.57;;;14.90;99.90;;;;;;5011412;28;20199;-72
2021/11/06 11:47:56;;;;;;;11.23;9.23;;;15.70;99.90;;;;;;5010592;28;20772;-72
2021/11/06 11:50:35;;;;;;;12.98;11.18;;;16.00;99.90;;;;;;5019826;28;20621;-72
2021/11/06 11:53:04;;;;;;;12.73;10.30;;;16.20;99.90;;;;;;5025706;28;20674;-72
2021/11/06 11:55:42;;;;;;;12.75;9.60;;;16.50;99.90;;;;;;5023178;28;20216;-72
2021/11/06 11:58:14;;;;;;;14.23;10.73;;;16.80;99.90;;;;;;5011816;28;20297;-72
2021/11/06 12:00:44;;;;;;;11.73;10.47;;;16.90;99.90;;;;;;5012899;28;20478;-71
2021/11/06 12:03:14;;;;;;;10.47;8.77;;;16.70;99.90;;;;;;5013111;28;20454;-72
2021/11/06 12:05:44;;;;;;;11.60;9.47;;;16.70;99.90;;;;;;5016344;28;20450;-71
2021/11/06 12:08:34;;;;;;;12.97;11.50;;;16.50;99.90;;;;;;5011199;28;20467;-72
2021/11/06 12:11:36;;;;;;;13.00;10.73;;;15.80;99.90;;;;;;5011029;28;20501;-72
2021/11/06 12:14:18;;;;;;;10.63;9.53;;;15.70;99.90;;;;;;5010330;28;20519;-71
2021/11/06 12:16:48;;;;;;;12.67;9.57;;;15.70;99.90;;;;;;5010413;28;20492;-72
2021/11/06 12:19:35;;;;;;;11.87;10.50;;;15.70;99.90;;;;;;5011179;28;20511;-72
2021/11/06 12:22:12;;;;;;;10.80;8.90;;;15.60;99.90;;;;;;5010502;28;20485;-72
2021/11/06 12:24:39;;;;;;;9.57;7.93;;;15.50;99.90;;;;;;5010765;28;20540;-73
2021/11/06 12:27:11;;;;;;;12.93;10.20;;;15.40;99.90;;;;;;5009568;28;20496;-73
2021/11/06 12:29:49;;;;;;;15.97;12.00;;;15.40;99.90;;;;;;5010794;28;20472;-72
2021/11/06 12:32:33;;;;;;;13.20;11.40;;;15.10;99.90;;;;;;5010777;28;20474;-73
2021/11/06 12:35:17;;;;;;;14.63;12.33;;;15.10;99.90;;;;;;5010470;28;20461;-73
2021/11/06 12:37:52;;;;;;;15.83;11.17;;;14.90;99.90;;;;;;5008336;28;20481;-72
2021/11/06 12:40:38;;;;;;;13.40;11.67;;;14.90;99.90;;;;;;5010587;28;20529;-73
2021/11/06 12:43:10;;;;;;;14.60;12.33;;;14.90;99.90;;;;;;4999886;28;20457;-73
2021/11/06 12:45:37;;;;;;;16.17;12.87;;;14.90;99.90;;;;;;5009968;28;20453;-74
2021/11/06 12:48:09;;;;;;;14.90;11.97;;;14.80;99.90;;;;;;5010061;28;20708;-74
2021/11/06 12:50:38;;;;;;;14.60;13.10;;;14.80;99.90;;;;;;5006583;28;20953;-73
2021/11/06 12:53:05;;;;;;;13.63;11.90;;;14.70;99.90;;;;;;5009215;28;20461;-74
2021/11/06 12:55:32;;;;;;;13.93;12.33;;;14.60;99.90;;;;;;5009748;28;20457;-72
2021/11/06 12:57:58;;;;;;;15.73;13.30;;;14.40;99.90;;;;;;5008827;28;20504;-72